sensor_id;sensor_type;location;lat;lon;timestamp;P1;durP1;ratioP1;P2;durP2;ratioP2
4650;SDS011;2338;49.602;8.722;2023-05-07T00:00:14;2.90;;;2.50;;
4650;SDS011;2338;49.602;8.722;2023-05-07T00:03:01;4.80;;;2.97;;
4650;SDS011;2338;49.602;8.722;2023-05-07T00:05:47;3.43;;;2.77;;
4650;SDS011;2338;49.602;8.722;2023-05-07T00:08:33;5.57;;;3.33;;
4650;SDS011;2338;49.602;8.722;2023-05-07T00:11:19;6.47;;;2.80;;
4650;SDS011;2338;49.602;8.722;2023-05-07T00:14:05;4.23;;;3.10;;
4650;SDS011;2338;49.602;8.722;2023-05-07T00:16:50;3.50;;;3.10;;
4650;SDS011;2338;49.602;8.722;2023-05-07T00:19:36;7.60;;;2.97;;
4650;SDS011;2338;49.602;8.722;2023-05-07T00:22:21;4.80;;;3.10;;
4650;SDS011;2338;49.602;8.722;2023-05-07T00:25:09;3.93;;;2.70;;
4650;SDS011;2338;49.602;8.722;2023-05-07T00:27:54;7.13;;;3.10;;
4650;SDS011;2338;49.602;8.722;2023-05-07T00:30:41;5.73;;;2.93;;
4650;SDS011;2338;49.602;8.722;2023-05-07T00:33:26;4.33;;;3.00;;
4650;SDS011;2338;49.602;8.722;2023-05-07T00:36:12;4.30;;;3.07;;
4650;SDS011;2338;49.602;8.722;2023-05-07T00:38:58;11.33;;;3.20;;
4650;SDS011;2338;49.602;8.722;2023-05-07T00:41:47;3.47;;;2.90;;
4650;SDS011;2338;49.602;8.722;2023-05-07T00:44:32;10.40;;;2.83;;
4650;SDS011;2338;49.602;8.722;2023-05-07T00:47:18;3.23;;;2.50;;
4650;SDS011;2338;49.602;8.722;2023-05-07T00:50:04;4.83;;;3.10;;
4650;SDS011;2338;49.602;8.722;2023-05-07T00:52:50;7.73;;;2.70;;
4650;SDS011;2338;49.602;8.722;2023-05-07T00:55:36;4.27;;;2.80;;
4650;SDS011;2338;49.602;8.722;2023-05-07T00:58:23;7.70;;;2.30;;
4650;SDS011;2338;49.602;8.722;2023-05-07T01:01:08;5.07;;;2.60;;
4650;SDS011;2338;49.602;8.722;2023-05-07T01:03:54;7.70;;;2.70;;
4650;SDS011;2338;49.602;8.722;2023-05-07T01:06:39;7.17;;;2.90;;
4650;SDS011;2338;49.602;8.722;2023-05-07T01:09:25;2.97;;;2.63;;
4650;SDS011;2338;49.602;8.722;2023-05-07T01:12:13;6.50;;;2.53;;
4650;SDS011;2338;49.602;8.722;2023-05-07T01:14:59;6.30;;;2.63;;
4650;SDS011;2338;49.602;8.722;2023-05-07T01:17:46;5.50;;;2.57;;
4650;SDS011;2338;49.602;8.722;2023-05-07T01:20:31;3.57;;;2.57;;
4650;SDS011;2338;49.602;8.722;2023-05-07T01:23:18;2.80;;;2.03;;
4650;SDS011;2338;49.602;8.722;2023-05-07T01:26:04;3.93;;;2.40;;
4650;SDS011;2338;49.602;8.722;2023-05-07T01:28:50;2.73;;;2.37;;
4650;SDS011;2338;49.602;8.722;2023-05-07T01:31:36;3.43;;;2.80;;
4650;SDS011;2338;49.602;8.722;2023-05-07T01:34:24;4.20;;;2.20;;
4650;SDS011;2338;49.602;8.722;2023-05-07T01:37:10;4.97;;;2.70;;
4650;SDS011;2338;49.602;8.722;2023-05-07T01:39:58;3.50;;;2.80;;
4650;SDS011;2338;49.602;8.722;2023-05-07T01:42:43;7.73;;;2.77;;
4650;SDS011;2338;49.602;8.722;2023-05-07T01:45:30;12.53;;;2.93;;
4650;SDS011;2338;49.602;8.722;2023-05-07T01:48:17;3.77;;;2.67;;
4650;SDS011;2338;49.602;8.722;2023-05-07T01:51:03;6.23;;;2.10;;
4650;SDS011;2338;49.602;8.722;2023-05-07T01:53:49;5.53;;;2.80;;
4650;SDS011;2338;49.602;8.722;2023-05-07T01:56:36;3.43;;;2.80;;
4650;SDS011;2338;49.602;8.722;2023-05-07T01:59:21;4.80;;;2.50;;
4650;SDS011;2338;49.602;8.722;2023-05-07T02:02:07;2.87;;;2.40;;
4650;SDS011;2338;49.602;8.722;2023-05-07T02:04:52;3.47;;;2.60;;
4650;SDS011;2338;49.602;8.722;2023-05-07T02:07:38;4.40;;;2.43;;
4650;SDS011;2338;49.602;8.722;2023-05-07T02:10:23;8.07;;;3.27;;
4650;SDS011;2338;49.602;8.722;2023-05-07T02:13:10;13.83;;;2.87;;
4650;SDS011;2338;49.602;8.722;2023-05-07T02:15:56;5.90;;;2.60;;
4650;SDS011;2338;49.602;8.722;2023-05-07T02:18:41;8.53;;;2.43;;
4650;SDS011;2338;49.602;8.722;2023-05-07T02:21:27;4.10;;;2.83;;
4650;SDS011;2338;49.602;8.722;2023-05-07T02:24:13;6.30;;;2.87;;
4650;SDS011;2338;49.602;8.722;2023-05-07T02:26:59;3.33;;;2.47;;
4650;SDS011;2338;49.602;8.722;2023-05-07T02:29:46;3.10;;;2.47;;
4650;SDS011;2338;49.602;8.722;2023-05-07T02:32:31;7.13;;;2.70;;
4650;SDS011;2338;49.602;8.722;2023-05-07T02:35:17;9.80;;;2.70;;
4650;SDS011;2338;49.602;8.722;2023-05-07T02:38:02;3.50;;;2.13;;
4650;SDS011;2338;49.602;8.722;2023-05-07T02:40:48;5.97;;;3.40;;
4650;SDS011;2338;49.602;8.722;2023-05-07T02:43:33;5.57;;;2.93;;
4650;SDS011;2338;49.602;8.722;2023-05-07T02:46:20;4.70;;;2.70;;
4650;SDS011;2338;49.602;8.722;2023-05-07T02:49:06;3.80;;;2.60;;
4650;SDS011;2338;49.602;8.722;2023-05-07T02:51:51;3.40;;;2.53;;
4650;SDS011;2338;49.602;8.722;2023-05-07T02:54:37;8.70;;;2.70;;
4650;SDS011;2338;49.602;8.722;2023-05-07T02:57:22;4.00;;;2.20;;
4650;SDS011;2338;49.602;8.722;2023-05-07T03:00:12;3.10;;;2.10;;
4650;SDS011;2338;49.602;8.722;2023-05-07T03:03:00;5.30;;;2.30;;
4650;SDS011;2338;49.602;8.722;2023-05-07T03:05:45;4.07;;;2.70;;
4650;SDS011;2338;49.602;8.722;2023-05-07T03:08:31;4.07;;;2.07;;
4650;SDS011;2338;49.602;8.722;2023-05-07T03:11:16;3.67;;;2.57;;
4650;SDS011;2338;49.602;8.722;2023-05-07T03:14:02;4.23;;;2.60;;
4650;SDS011;2338;49.602;8.722;2023-05-07T03:16:48;3.30;;;2.97;;
4650;SDS011;2338;49.602;8.722;2023-05-07T03:19:35;10.70;;;3.17;;
4650;SDS011;2338;49.602;8.722;2023-05-07T03:22:21;3.60;;;2.27;;
4650;SDS011;2338;49.602;8.722;2023-05-07T03:25:07;3.80;;;2.50;;
4650;SDS011;2338;49.602;8.722;2023-05-07T03:27:53;3.60;;;2.50;;
4650;SDS011;2338;49.602;8.722;2023-05-07T03:30:38;4.27;;;2.90;;
4650;SDS011;2338;49.602;8.722;2023-05-07T03:33:24;3.90;;;2.30;;
4650;SDS011;2338;49.602;8.722;2023-05-07T03:36:12;4.60;;;2.77;;
4650;SDS011;2338;49.602;8.722;2023-05-07T03:38:57;4.20;;;2.67;;
4650;SDS011;2338;49.602;8.722;2023-05-07T03:41:43;3.20;;;2.43;;
4650;SDS011;2338;49.602;8.722;2023-05-07T03:44:28;3.50;;;2.37;;
4650;SDS011;2338;49.602;8.722;2023-05-07T03:47:14;5.07;;;2.40;;
4650;SDS011;2338;49.602;8.722;2023-05-07T03:49:59;2.97;;;2.30;;
4650;SDS011;2338;49.602;8.722;2023-05-07T03:52:46;3.10;;;2.50;;
4650;SDS011;2338;49.602;8.722;2023-05-07T03:55:32;3.07;;;2.77;;
4650;SDS011;2338;49.602;8.722;2023-05-07T03:58:17;5.40;;;2.87;;
4650;SDS011;2338;49.602;8.722;2023-05-07T04:01:03;4.57;;;2.70;;
4650;SDS011;2338;49.602;8.722;2023-05-07T04:03:48;3.37;;;2.30;;
4650;SDS011;2338;49.602;8.722;2023-05-07T04:06:34;2.97;;;2.33;;
4650;SDS011;2338;49.602;8.722;2023-05-07T04:09:20;4.80;;;2.63;;
4650;SDS011;2338;49.602;8.722;2023-05-07T04:12:06;4.07;;;2.73;;
4650;SDS011;2338;49.602;8.722;2023-05-07T04:14:52;3.10;;;2.20;;
4650;SDS011;2338;49.602;8.722;2023-05-07T04:17:37;6.57;;;2.70;;
4650;SDS011;2338;49.602;8.722;2023-05-07T04:20:23;4.33;;;2.60;;
4650;SDS011;2338;49.602;8.722;2023-05-07T04:23:09;3.67;;;2.27;;
4650;SDS011;2338;49.602;8.722;2023-05-07T04:25:55;3.33;;;2.30;;
4650;SDS011;2338;49.602;8.722;2023-05-07T04:28:41;2.63;;;2.23;;
4650;SDS011;2338;49.602;8.722;2023-05-07T04:31:26;3.73;;;2.80;;
4650;SDS011;2338;49.602;8.722;2023-05-07T04:34:12;6.50;;;2.50;;
4650;SDS011;2338;49.602;8.722;2023-05-07T04:36:58;4.20;;;2.77;;
4650;SDS011;2338;49.602;8.722;2023-05-07T04:39:43;4.43;;;2.70;;
4650;SDS011;2338;49.602;8.722;2023-05-07T04:42:30;7.60;;;3.20;;
4650;SDS011;2338;49.602;8.722;2023-05-07T04:45:16;3.60;;;2.63;;
4650;SDS011;2338;49.602;8.722;2023-05-07T04:48:01;5.20;;;3.10;;
4650;SDS011;2338;49.602;8.722;2023-05-07T04:50:47;3.10;;;2.40;;
4650;SDS011;2338;49.602;8.722;2023-05-07T04:53:33;3.27;;;2.30;;
4650;SDS011;2338;49.602;8.722;2023-05-07T04:56:18;4.30;;;2.57;;
4650;SDS011;2338;49.602;8.722;2023-05-07T04:59:05;3.03;;;2.67;;
4650;SDS011;2338;49.602;8.722;2023-05-07T05:01:50;4.20;;;2.50;;
4650;SDS011;2338;49.602;8.722;2023-05-07T05:04:36;4.07;;;2.40;;
4650;SDS011;2338;49.602;8.722;2023-05-07T05:07:21;4.80;;;2.70;;
4650;SDS011;2338;49.602;8.722;2023-05-07T05:10:07;3.97;;;2.67;;
4650;SDS011;2338;49.602;8.722;2023-05-07T05:12:52;4.10;;;3.10;;
4650;SDS011;2338;49.602;8.722;2023-05-07T05:15:39;3.37;;;2.53;;
4650;SDS011;2338;49.602;8.722;2023-05-07T05:18:25;3.47;;;2.43;;
4650;SDS011;2338;49.602;8.722;2023-05-07T05:21:10;3.00;;;2.17;;
4650;SDS011;2338;49.602;8.722;2023-05-07T05:23:55;5.37;;;2.40;;
4650;SDS011;2338;49.602;8.722;2023-05-07T05:26:41;4.73;;;2.87;;
4650;SDS011;2338;49.602;8.722;2023-05-07T05:29:27;4.47;;;2.80;;
4650;SDS011;2338;49.602;8.722;2023-05-07T05:32:14;4.13;;;2.77;;
4650;SDS011;2338;49.602;8.722;2023-05-07T05:34:59;4.73;;;2.47;;
4650;SDS011;2338;49.602;8.722;2023-05-07T05:37:45;4.20;;;3.27;;
4650;SDS011;2338;49.602;8.722;2023-05-07T05:40:30;3.20;;;2.47;;
4650;SDS011;2338;49.602;8.722;2023-05-07T05:43:16;8.00;;;3.10;;
4650;SDS011;2338;49.602;8.722;2023-05-07T05:46:01;3.50;;;2.30;;
4650;SDS011;2338;49.602;8.722;2023-05-07T05:48:49;3.70;;;3.10;;
4650;SDS011;2338;49.602;8.722;2023-05-07T05:51:34;4.30;;;2.60;;
4650;SDS011;2338;49.602;8.722;2023-05-07T05:54:20;3.70;;;2.77;;
4650;SDS011;2338;49.602;8.722;2023-05-07T05:57:05;4.63;;;2.53;;
4650;SDS011;2338;49.602;8.722;2023-05-07T05:59:51;3.03;;;2.63;;
4650;SDS011;2338;49.602;8.722;2023-05-07T06:02:36;3.33;;;2.47;;
4650;SDS011;2338;49.602;8.722;2023-05-07T06:05:23;3.07;;;2.60;;
4650;SDS011;2338;49.602;8.722;2023-05-07T06:08:09;3.70;;;2.20;;
4650;SDS011;2338;49.602;8.722;2023-05-07T06:10:54;5.87;;;2.83;;
4650;SDS011;2338;49.602;8.722;2023-05-07T06:13:40;3.07;;;2.47;;
4650;SDS011;2338;49.602;8.722;2023-05-07T06:16:26;3.60;;;2.23;;
4650;SDS011;2338;49.602;8.722;2023-05-07T06:19:11;3.57;;;2.90;;
4650;SDS011;2338;49.602;8.722;2023-05-07T06:21:58;2.80;;;2.00;;
4650;SDS011;2338;49.602;8.722;2023-05-07T06:24:44;2.97;;;2.30;;
4650;SDS011;2338;49.602;8.722;2023-05-07T06:27:30;2.50;;;2.27;;
4650;SDS011;2338;49.602;8.722;2023-05-07T06:30:15;5.00;;;2.47;;
4650;SDS011;2338;49.602;8.722;2023-05-07T06:33:01;2.90;;;2.43;;
4650;SDS011;2338;49.602;8.722;2023-05-07T06:35:46;6.00;;;2.13;;
4650;SDS011;2338;49.602;8.722;2023-05-07T06:38:33;3.07;;;2.30;;
4650;SDS011;2338;49.602;8.722;2023-05-07T06:41:19;3.40;;;2.20;;
4650;SDS011;2338;49.602;8.722;2023-05-07T06:44:05;2.60;;;2.10;;
4650;SDS011;2338;49.602;8.722;2023-05-07T06:46:50;2.67;;;1.90;;
4650;SDS011;2338;49.602;8.722;2023-05-07T06:49:36;2.70;;;1.93;;
4650;SDS011;2338;49.602;8.722;2023-05-07T06:52:21;2.80;;;2.13;;
4650;SDS011;2338;49.602;8.722;2023-05-07T06:55:08;3.17;;;1.90;;
4650;SDS011;2338;49.602;8.722;2023-05-07T06:57:54;2.87;;;2.43;;
4650;SDS011;2338;49.602;8.722;2023-05-07T07:00:41;3.23;;;2.17;;
4650;SDS011;2338;49.602;8.722;2023-05-07T07:03:27;3.40;;;2.33;;
4650;SDS011;2338;49.602;8.722;2023-05-07T07:06:12;4.93;;;2.80;;
4650;SDS011;2338;49.602;8.722;2023-05-07T07:08:58;5.60;;;2.27;;
4650;SDS011;2338;49.602;8.722;2023-05-07T07:11:45;10.00;;;2.80;;
4650;SDS011;2338;49.602;8.722;2023-05-07T07:14:31;4.13;;;2.80;;
4650;SDS011;2338;49.602;8.722;2023-05-07T07:17:16;6.80;;;2.40;;
4650;SDS011;2338;49.602;8.722;2023-05-07T07:20:02;3.60;;;2.47;;
4650;SDS011;2338;49.602;8.722;2023-05-07T07:22:48;6.90;;;2.33;;
4650;SDS011;2338;49.602;8.722;2023-05-07T07:25:33;2.20;;;1.67;;
4650;SDS011;2338;49.602;8.722;2023-05-07T07:28:21;3.87;;;1.87;;
4650;SDS011;2338;49.602;8.722;2023-05-07T07:31:07;2.90;;;1.73;;
4650;SDS011;2338;49.602;8.722;2023-05-07T07:33:53;3.77;;;1.93;;
4650;SDS011;2338;49.602;8.722;2023-05-07T07:36:38;4.13;;;2.20;;
4650;SDS011;2338;49.602;8.722;2023-05-07T07:39:24;3.90;;;2.47;;
4650;SDS011;2338;49.602;8.722;2023-05-07T07:42:09;4.60;;;2.50;;
4650;SDS011;2338;49.602;8.722;2023-05-07T07:44:56;8.23;;;2.10;;
4650;SDS011;2338;49.602;8.722;2023-05-07T07:47:41;2.87;;;2.03;;
4650;SDS011;2338;49.602;8.722;2023-05-07T07:50:27;3.80;;;2.20;;
4650;SDS011;2338;49.602;8.722;2023-05-07T07:53:12;3.17;;;1.90;;
4650;SDS011;2338;49.602;8.722;2023-05-07T07:55:58;2.70;;;1.83;;
4650;SDS011;2338;49.602;8.722;2023-05-07T07:58:43;4.10;;;2.27;;
4650;SDS011;2338;49.602;8.722;2023-05-07T08:01:30;4.40;;;2.30;;
4650;SDS011;2338;49.602;8.722;2023-05-07T08:04:16;2.90;;;1.90;;
4650;SDS011;2338;49.602;8.722;2023-05-07T08:07:02;4.33;;;2.17;;
4650;SDS011;2338;49.602;8.722;2023-05-07T08:09:47;3.53;;;1.80;;
4650;SDS011;2338;49.602;8.722;2023-05-07T08:12:33;3.70;;;2.80;;
4650;SDS011;2338;49.602;8.722;2023-05-07T08:15:18;5.53;;;2.70;;
4650;SDS011;2338;49.602;8.722;2023-05-07T08:18:05;4.00;;;2.23;;
4650;SDS011;2338;49.602;8.722;2023-05-07T08:20:50;3.20;;;2.27;;
4650;SDS011;2338;49.602;8.722;2023-05-07T08:23:36;3.10;;;2.00;;
4650;SDS011;2338;49.602;8.722;2023-05-07T08:26:22;3.67;;;2.37;;
4650;SDS011;2338;49.602;8.722;2023-05-07T08:29:07;5.00;;;2.10;;
4650;SDS011;2338;49.602;8.722;2023-05-07T08:31:53;5.53;;;2.10;;
4650;SDS011;2338;49.602;8.722;2023-05-07T08:34:39;5.00;;;2.40;;
4650;SDS011;2338;49.602;8.722;2023-05-07T08:37:25;3.17;;;1.70;;
4650;SDS011;2338;49.602;8.722;2023-05-07T08:40:11;4.37;;;2.43;;
4650;SDS011;2338;49.602;8.722;2023-05-07T08:42:56;3.53;;;2.17;;
4650;SDS011;2338;49.602;8.722;2023-05-07T08:45:42;8.70;;;2.43;;
4650;SDS011;2338;49.602;8.722;2023-05-07T08:48:30;3.50;;;2.00;;
4650;SDS011;2338;49.602;8.722;2023-05-07T08:51:19;3.80;;;1.90;;
4650;SDS011;2338;49.602;8.722;2023-05-07T08:54:05;4.10;;;2.07;;
4650;SDS011;2338;49.602;8.722;2023-05-07T08:56:52;2.80;;;2.20;;
4650;SDS011;2338;49.602;8.722;2023-05-07T08:59:37;6.37;;;2.43;;
4650;SDS011;2338;49.602;8.722;2023-05-07T09:02:23;2.83;;;2.07;;
4650;SDS011;2338;49.602;8.722;2023-05-07T09:05:08;6.43;;;2.70;;
4650;SDS011;2338;49.602;8.722;2023-05-07T09:07:58;4.50;;;2.70;;
4650;SDS011;2338;49.602;8.722;2023-05-07T09:10:44;3.77;;;2.40;;
4650;SDS011;2338;49.602;8.722;2023-05-07T09:13:29;4.67;;;2.57;;
4650;SDS011;2338;49.602;8.722;2023-05-07T09:16:15;6.60;;;2.37;;
4650;SDS011;2338;49.602;8.722;2023-05-07T09:19:00;3.17;;;2.67;;
4650;SDS011;2338;49.602;8.722;2023-05-07T09:21:46;3.10;;;2.40;;
4650;SDS011;2338;49.602;8.722;2023-05-07T09:24:33;3.70;;;2.40;;
4650;SDS011;2338;49.602;8.722;2023-05-07T09:27:21;3.63;;;2.23;;
4650;SDS011;2338;49.602;8.722;2023-05-07T09:30:07;4.10;;;2.07;;
4650;SDS011;2338;49.602;8.722;2023-05-07T09:32:53;6.47;;;2.80;;
4650;SDS011;2338;49.602;8.722;2023-05-07T09:35:39;5.30;;;2.47;;
4650;SDS011;2338;49.602;8.722;2023-05-07T09:38:24;3.10;;;2.50;;
4650;SDS011;2338;49.602;8.722;2023-05-07T09:41:13;3.40;;;2.30;;
4650;SDS011;2338;49.602;8.722;2023-05-07T09:43:59;6.10;;;2.30;;
4650;SDS011;2338;49.602;8.722;2023-05-07T09:46:45;4.53;;;2.60;;
4650;SDS011;2338;49.602;8.722;2023-05-07T09:49:36;4.10;;;2.37;;
4650;SDS011;2338;49.602;8.722;2023-05-07T09:52:25;4.00;;;2.77;;
4650;SDS011;2338;49.602;8.722;2023-05-07T09:55:17;3.33;;;2.43;;
4650;SDS011;2338;49.602;8.722;2023-05-07T09:58:04;5.97;;;2.30;;
4650;SDS011;2338;49.602;8.722;2023-05-07T10:00:51;2.90;;;2.20;;
4650;SDS011;2338;49.602;8.722;2023-05-07T10:03:37;3.83;;;2.53;;
4650;SDS011;2338;49.602;8.722;2023-05-07T10:06:24;3.70;;;2.80;;
4650;SDS011;2338;49.602;8.722;2023-05-07T10:09:10;3.97;;;2.30;;
4650;SDS011;2338;49.602;8.722;2023-05-07T10:11:56;3.60;;;2.43;;
4650;SDS011;2338;49.602;8.722;2023-05-07T10:14:44;3.53;;;2.67;;
4650;SDS011;2338;49.602;8.722;2023-05-07T10:17:31;4.70;;;2.60;;
4650;SDS011;2338;49.602;8.722;2023-05-07T10:20:17;3.07;;;2.77;;
4650;SDS011;2338;49.602;8.722;2023-05-07T10:23:06;12.47;;;3.27;;
4650;SDS011;2338;49.602;8.722;2023-05-07T10:25:53;4.63;;;2.90;;
4650;SDS011;2338;49.602;8.722;2023-05-07T10:28:42;3.40;;;2.60;;
4650;SDS011;2338;49.602;8.722;2023-05-07T10:31:38;2.73;;;2.27;;
4650;SDS011;2338;49.602;8.722;2023-05-07T10:34:34;4.07;;;2.50;;
4650;SDS011;2338;49.602;8.722;2023-05-07T10:37:23;4.73;;;2.63;;
4650;SDS011;2338;49.602;8.722;2023-05-07T10:40:09;3.57;;;2.50;;
4650;SDS011;2338;49.602;8.722;2023-05-07T10:42:56;3.17;;;2.30;;
4650;SDS011;2338;49.602;8.722;2023-05-07T10:45:42;3.20;;;2.27;;
4650;SDS011;2338;49.602;8.722;2023-05-07T10:48:30;3.30;;;2.57;;
4650;SDS011;2338;49.602;8.722;2023-05-07T10:51:19;4.30;;;2.37;;
4650;SDS011;2338;49.602;8.722;2023-05-07T10:54:19;3.13;;;1.97;;
4650;SDS011;2338;49.602;8.722;2023-05-07T11:03:28;2.93;;;1.93;;
4650;SDS011;2338;49.602;8.722;2023-05-07T11:06:15;4.23;;;2.10;;
4650;SDS011;2338;49.602;8.722;2023-05-07T11:09:01;2.93;;;2.20;;
4650;SDS011;2338;49.602;8.722;2023-05-07T11:11:48;3.57;;;2.50;;
4650;SDS011;2338;49.602;8.722;2023-05-07T11:14:42;3.10;;;1.73;;
4650;SDS011;2338;49.602;8.722;2023-05-07T11:17:29;3.40;;;2.30;;
4650;SDS011;2338;49.602;8.722;2023-05-07T11:20:16;3.27;;;2.33;;
4650;SDS011;2338;49.602;8.722;2023-05-07T11:23:02;2.70;;;1.93;;
4650;SDS011;2338;49.602;8.722;2023-05-07T11:25:47;3.40;;;2.10;;
4650;SDS011;2338;49.602;8.722;2023-05-07T11:28:36;2.43;;;2.10;;
4650;SDS011;2338;49.602;8.722;2023-05-07T11:31:23;6.20;;;3.07;;
4650;SDS011;2338;49.602;8.722;2023-05-07T11:34:09;3.70;;;2.40;;
4650;SDS011;2338;49.602;8.722;2023-05-07T11:36:57;3.97;;;2.10;;
4650;SDS011;2338;49.602;8.722;2023-05-07T11:39:44;4.33;;;2.10;;
4650;SDS011;2338;49.602;8.722;2023-05-07T11:42:30;5.23;;;2.17;;
4650;SDS011;2338;49.602;8.722;2023-05-07T11:45:22;4.20;;;2.40;;
4650;SDS011;2338;49.602;8.722;2023-05-07T11:48:08;3.73;;;2.00;;
4650;SDS011;2338;49.602;8.722;2023-05-07T11:50:54;3.70;;;2.03;;
4650;SDS011;2338;49.602;8.722;2023-05-07T11:53:46;3.53;;;2.07;;
4650;SDS011;2338;49.602;8.722;2023-05-07T11:56:33;7.07;;;2.80;;
4650;SDS011;2338;49.602;8.722;2023-05-07T11:59:19;4.30;;;2.43;;
4650;SDS011;2338;49.602;8.722;2023-05-07T12:02:05;3.60;;;2.10;;
4650;SDS011;2338;49.602;8.722;2023-05-07T12:04:51;2.73;;;1.90;;
4650;SDS011;2338;49.602;8.722;2023-05-07T12:07:36;3.40;;;1.97;;
4650;SDS011;2338;49.602;8.722;2023-05-07T12:10:23;3.67;;;1.70;;
4650;SDS011;2338;49.602;8.722;2023-05-07T12:13:13;2.90;;;1.67;;
4650;SDS011;2338;49.602;8.722;2023-05-07T12:15:59;3.20;;;2.00;;
4650;SDS011;2338;49.602;8.722;2023-05-07T12:18:46;8.70;;;1.73;;
4650;SDS011;2338;49.602;8.722;2023-05-07T12:21:32;4.03;;;1.50;;
4650;SDS011;2338;49.602;8.722;2023-05-07T12:24:18;3.10;;;1.93;;
4650;SDS011;2338;49.602;8.722;2023-05-07T12:27:06;3.33;;;1.90;;
4650;SDS011;2338;49.602;8.722;2023-05-07T12:29:51;5.10;;;1.80;;
4650;SDS011;2338;49.602;8.722;2023-05-07T12:32:37;3.40;;;1.73;;
4650;SDS011;2338;49.602;8.722;2023-05-07T12:35:26;7.63;;;2.23;;
4650;SDS011;2338;49.602;8.722;2023-05-07T12:38:12;5.97;;;2.07;;
4650;SDS011;2338;49.602;8.722;2023-05-07T12:41:00;6.93;;;1.80;;
4650;SDS011;2338;49.602;8.722;2023-05-07T12:43:46;3.90;;;2.23;;
4650;SDS011;2338;49.602;8.722;2023-05-07T12:46:32;3.77;;;2.20;;
4650;SDS011;2338;49.602;8.722;2023-05-07T12:49:23;3.83;;;1.90;;
4650;SDS011;2338;49.602;8.722;2023-05-07T12:52:09;4.10;;;2.30;;
4650;SDS011;2338;49.602;8.722;2023-05-07T12:54:56;5.27;;;2.07;;
4650;SDS011;2338;49.602;8.722;2023-05-07T12:57:42;5.10;;;1.70;;
4650;SDS011;2338;49.602;8.722;2023-05-07T13:00:33;3.80;;;2.17;;
4650;SDS011;2338;49.602;8.722;2023-05-07T13:03:23;2.27;;;1.50;;
4650;SDS011;2338;49.602;8.722;2023-05-07T13:06:09;2.77;;;1.70;;
4650;SDS011;2338;49.602;8.722;2023-05-07T13:08:55;2.80;;;1.90;;
4650;SDS011;2338;49.602;8.722;2023-05-07T13:11:41;3.37;;;1.60;;
4650;SDS011;2338;49.602;8.722;2023-05-07T13:14:26;3.07;;;1.90;;
4650;SDS011;2338;49.602;8.722;2023-05-07T13:17:13;2.50;;;1.60;;
4650;SDS011;2338;49.602;8.722;2023-05-07T13:19:59;4.17;;;1.77;;
4650;SDS011;2338;49.602;8.722;2023-05-07T13:22:44;3.93;;;2.20;;
4650;SDS011;2338;49.602;8.722;2023-05-07T13:25:29;3.40;;;2.07;;
4650;SDS011;2338;49.602;8.722;2023-05-07T13:28:15;3.30;;;1.93;;
4650;SDS011;2338;49.602;8.722;2023-05-07T13:31:00;7.37;;;2.27;;
4650;SDS011;2338;49.602;8.722;2023-05-07T13:33:47;2.40;;;1.77;;
4650;SDS011;2338;49.602;8.722;2023-05-07T13:36:33;5.70;;;2.30;;
4650;SDS011;2338;49.602;8.722;2023-05-07T13:39:20;4.10;;;2.17;;
4650;SDS011;2338;49.602;8.722;2023-05-07T13:42:06;3.80;;;2.43;;
4650;SDS011;2338;49.602;8.722;2023-05-07T13:44:51;2.80;;;2.13;;
4650;SDS011;2338;49.602;8.722;2023-05-07T13:47:37;3.50;;;2.23;;
4650;SDS011;2338;49.602;8.722;2023-05-07T13:50:24;3.10;;;2.30;;
4650;SDS011;2338;49.602;8.722;2023-05-07T13:53:10;4.30;;;2.30;;
4650;SDS011;2338;49.602;8.722;2023-05-07T13:55:56;4.50;;;2.90;;
4650;SDS011;2338;49.602;8.722;2023-05-07T13:58:41;3.60;;;2.30;;
4650;SDS011;2338;49.602;8.722;2023-05-07T14:01:27;3.17;;;2.60;;
4650;SDS011;2338;49.602;8.722;2023-05-07T14:04:12;4.00;;;2.27;;
4650;SDS011;2338;49.602;8.722;2023-05-07T14:06:59;5.33;;;2.73;;
4650;SDS011;2338;49.602;8.722;2023-05-07T14:09:45;3.53;;;2.17;;
4650;SDS011;2338;49.602;8.722;2023-05-07T14:12:31;3.80;;;2.60;;
4650;SDS011;2338;49.602;8.722;2023-05-07T14:15:17;3.30;;;2.30;;
4650;SDS011;2338;49.602;8.722;2023-05-07T14:18:02;4.20;;;2.57;;
4650;SDS011;2338;49.602;8.722;2023-05-07T14:20:48;4.03;;;2.90;;
4650;SDS011;2338;49.602;8.722;2023-05-07T14:23:35;6.83;;;2.67;;
4650;SDS011;2338;49.602;8.722;2023-05-07T14:26:21;3.07;;;2.70;;
4650;SDS011;2338;49.602;8.722;2023-05-07T14:29:07;3.93;;;2.80;;
4650;SDS011;2338;49.602;8.722;2023-05-07T14:31:52;8.50;;;3.60;;
4650;SDS011;2338;49.602;8.722;2023-05-07T14:34:38;4.97;;;2.90;;
4650;SDS011;2338;49.602;8.722;2023-05-07T14:37:23;3.83;;;2.73;;
4650;SDS011;2338;49.602;8.722;2023-05-07T14:40:10;5.13;;;3.00;;
4650;SDS011;2338;49.602;8.722;2023-05-07T14:42:57;5.10;;;4.13;;
4650;SDS011;2338;49.602;8.722;2023-05-07T14:45:42;6.27;;;4.30;;
4650;SDS011;2338;49.602;8.722;2023-05-07T14:48:28;5.23;;;3.60;;
4650;SDS011;2338;49.602;8.722;2023-05-07T14:51:13;4.10;;;3.37;;
4650;SDS011;2338;49.602;8.722;2023-05-07T14:53:59;4.00;;;2.90;;
4650;SDS011;2338;49.602;8.722;2023-05-07T14:56:46;9.23;;;4.10;;
4650;SDS011;2338;49.602;8.722;2023-05-07T14:59:32;6.80;;;3.07;;
4650;SDS011;2338;49.602;8.722;2023-05-07T15:02:18;9.13;;;3.07;;
4650;SDS011;2338;49.602;8.722;2023-05-07T15:05:04;6.73;;;2.70;;
4650;SDS011;2338;49.602;8.722;2023-05-07T15:07:50;7.27;;;2.50;;
4650;SDS011;2338;49.602;8.722;2023-05-07T15:10:36;11.20;;;4.23;;
4650;SDS011;2338;49.602;8.722;2023-05-07T15:13:25;14.90;;;3.80;;
4650;SDS011;2338;49.602;8.722;2023-05-07T15:16:11;7.80;;;3.20;;
4650;SDS011;2338;49.602;8.722;2023-05-07T15:18:56;8.70;;;3.60;;
4650;SDS011;2338;49.602;8.722;2023-05-07T15:21:42;20.17;;;3.97;;
4650;SDS011;2338;49.602;8.722;2023-05-07T15:24:27;6.03;;;2.93;;
4650;SDS011;2338;49.602;8.722;2023-05-07T15:27:13;9.93;;;3.97;;
4650;SDS011;2338;49.602;8.722;2023-05-07T15:30:01;11.60;;;3.30;;
4650;SDS011;2338;49.602;8.722;2023-05-07T15:32:47;14.00;;;4.00;;
4650;SDS011;2338;49.602;8.722;2023-05-07T15:35:33;13.10;;;3.20;;
4650;SDS011;2338;49.602;8.722;2023-05-07T15:38:19;10.73;;;4.07;;
4650;SDS011;2338;49.602;8.722;2023-05-07T15:41:04;9.83;;;3.40;;
4650;SDS011;2338;49.602;8.722;2023-05-07T15:43:50;5.77;;;2.97;;
4650;SDS011;2338;49.602;8.722;2023-05-07T15:46:38;7.63;;;3.90;;
4650;SDS011;2338;49.602;8.722;2023-05-07T15:49:23;6.77;;;3.23;;
4650;SDS011;2338;49.602;8.722;2023-05-07T15:52:09;7.90;;;3.57;;
4650;SDS011;2338;49.602;8.722;2023-05-07T15:54:57;8.80;;;3.27;;
4650;SDS011;2338;49.602;8.722;2023-05-07T15:57:42;6.57;;;3.07;;
4650;SDS011;2338;49.602;8.722;2023-05-07T16:00:27;3.43;;;2.67;;
4650;SDS011;2338;49.602;8.722;2023-05-07T16:03:14;9.23;;;3.23;;
4650;SDS011;2338;49.602;8.722;2023-05-07T16:06:01;5.77;;;3.13;;
4650;SDS011;2338;49.602;8.722;2023-05-07T16:08:46;7.87;;;3.60;;
4650;SDS011;2338;49.602;8.722;2023-05-07T16:11:32;11.17;;;4.10;;
4650;SDS011;2338;49.602;8.722;2023-05-07T16:14:17;11.67;;;4.63;;
4650;SDS011;2338;49.602;8.722;2023-05-07T16:17:03;4.90;;;3.50;;
4650;SDS011;2338;49.602;8.722;2023-05-07T16:19:50;7.97;;;4.07;;
4650;SDS011;2338;49.602;8.722;2023-05-07T16:22:35;5.13;;;3.33;;
4650;SDS011;2338;49.602;8.722;2023-05-07T16:25:21;9.77;;;3.30;;
4650;SDS011;2338;49.602;8.722;2023-05-07T16:28:06;5.13;;;3.03;;
4650;SDS011;2338;49.602;8.722;2023-05-07T16:30:52;4.53;;;2.80;;
4650;SDS011;2338;49.602;8.722;2023-05-07T16:33:37;7.43;;;3.50;;
4650;SDS011;2338;49.602;8.722;2023-05-07T16:36:27;5.83;;;3.20;;
4650;SDS011;2338;49.602;8.722;2023-05-07T16:39:12;9.27;;;3.40;;
4650;SDS011;2338;49.602;8.722;2023-05-07T16:41:58;5.43;;;3.77;;
4650;SDS011;2338;49.602;8.722;2023-05-07T16:44:44;8.07;;;3.70;;
4650;SDS011;2338;49.602;8.722;2023-05-07T16:47:29;5.90;;;3.10;;
4650;SDS011;2338;49.602;8.722;2023-05-07T16:50:15;7.70;;;3.43;;
4650;SDS011;2338;49.602;8.722;2023-05-07T16:53:03;6.50;;;3.80;;
4650;SDS011;2338;49.602;8.722;2023-05-07T16:55:49;11.50;;;4.10;;
4650;SDS011;2338;49.602;8.722;2023-05-07T16:58:38;11.00;;;3.40;;
4650;SDS011;2338;49.602;8.722;2023-05-07T17:01:24;10.50;;;3.63;;
4650;SDS011;2338;49.602;8.722;2023-05-07T17:04:09;5.40;;;4.53;;
4650;SDS011;2338;49.602;8.722;2023-05-07T17:06:55;8.70;;;3.40;;
4650;SDS011;2338;49.602;8.722;2023-05-07T17:09:41;6.53;;;3.30;;
4650;SDS011;2338;49.602;8.722;2023-05-07T17:12:27;6.77;;;3.07;;
4650;SDS011;2338;49.602;8.722;2023-05-07T17:15:14;4.47;;;2.63;;
4650;SDS011;2338;49.602;8.722;2023-05-07T17:17:59;5.90;;;3.50;;